sensor_id;sensor_type;location;lat;lon;timestamp;P1;durP1;ratioP1;P2;durP2;ratioP2
26838;SDS011;40088;51.214;6.786;2022-11-02T00:03:41;5.30;;;1.85;;
26838;SDS011;40088;51.214;6.786;2022-11-02T00:13:42;7.85;;;2.28;;
26838;SDS011;40088;51.214;6.786;2022-11-02T00:23:42;6.35;;;2.05;;
26838;SDS011;40088;51.214;6.786;2022-11-02T00:33:44;5.22;;;2.03;;
26838;SDS011;40088;51.214;6.786;2022-11-02T00:43:44;6.97;;;2.28;;
26838;SDS011;40088;51.214;6.786;2022-11-02T00:53:44;5.63;;;2.00;;
26838;SDS011;40088;51.214;6.786;2022-11-02T01:03:45;6.20;;;2.33;;
26838;SDS011;40088;51.214;6.786;2022-11-02T01:13:45;7.72;;;2.58;;
26838;SDS011;40088;51.214;6.786;2022-11-02T01:23:45;5.22;;;2.20;;
26838;SDS011;40088;51.214;6.786;2022-11-02T01:33:46;6.95;;;2.40;;
26838;SDS011;40088;51.214;6.786;2022-11-02T01:43:48;7.50;;;2.33;;
26838;SDS011;40088;51.214;6.786;2022-11-02T02:03:53;7.80;;;2.30;;
26838;SDS011;40088;51.214;6.786;2022-11-02T02:13:57;5.97;;;2.03;;
26838;SDS011;40088;51.214;6.786;2022-11-02T02:34:35;4.38;;;2.00;;
26838;SDS011;40088;51.214;6.786;2022-11-02T02:44:39;6.97;;;2.40;;
26838;SDS011;40088;51.214;6.786;2022-11-02T02:54:45;3.67;;;1.80;;
26838;SDS011;40088;51.214;6.786;2022-11-02T03:04:48;4.10;;;1.90;;
26838;SDS011;40088;51.214;6.786;2022-11-02T03:24:54;6.80;;;2.00;;
26838;SDS011;40088;51.214;6.786;2022-11-02T03:35:02;5.60;;;1.98;;
26838;SDS011;40088;51.214;6.786;2022-11-02T03:45:20;4.30;;;1.70;;
26838;SDS011;40088;51.214;6.786;2022-11-02T03:55:34;5.07;;;2.00;;
26838;SDS011;40088;51.214;6.786;2022-11-02T04:05:38;5.28;;;1.98;;
26838;SDS011;40088;51.214;6.786;2022-11-02T04:15:39;4.85;;;1.67;;
26838;SDS011;40088;51.214;6.786;2022-11-02T04:25:39;8.30;;;2.30;;
26838;SDS011;40088;51.214;6.786;2022-11-02T04:35:39;5.05;;;2.13;;
26838;SDS011;40088;51.214;6.786;2022-11-02T04:45:39;4.80;;;1.90;;
26838;SDS011;40088;51.214;6.786;2022-11-02T04:55:40;6.78;;;2.17;;
26838;SDS011;40088;51.214;6.786;2022-11-02T05:05:40;7.32;;;2.10;;
26838;SDS011;40088;51.214;6.786;2022-11-02T05:15:40;4.57;;;1.75;;
26838;SDS011;40088;51.214;6.786;2022-11-02T05:25:41;5.05;;;1.70;;
26838;SDS011;40088;51.214;6.786;2022-11-02T05:35:41;3.95;;;1.70;;
26838;SDS011;40088;51.214;6.786;2022-11-02T05:45:41;8.50;;;1.95;;
26838;SDS011;40088;51.214;6.786;2022-11-02T05:55:42;8.18;;;2.42;;
26838;SDS011;40088;51.214;6.786;2022-11-02T06:05:42;7.15;;;2.67;;
26838;SDS011;40088;51.214;6.786;2022-11-02T06:15:43;5.28;;;1.88;;
26838;SDS011;40088;51.214;6.786;2022-11-02T06:25:52;5.28;;;1.88;;
26838;SDS011;40088;51.214;6.786;2022-11-02T06:35:55;7.30;;;2.10;;
26838;SDS011;40088;51.214;6.786;2022-11-02T06:45:55;7.88;;;2.38;;
26838;SDS011;40088;51.214;6.786;2022-11-02T06:55:57;6.57;;;2.25;;
26838;SDS011;40088;51.214;6.786;2022-11-02T07:05:58;7.32;;;2.00;;
26838;SDS011;40088;51.214;6.786;2022-11-02T07:15:58;7.22;;;2.17;;
26838;SDS011;40088;51.214;6.786;2022-11-02T07:26:02;7.32;;;2.03;;
26838;SDS011;40088;51.214;6.786;2022-11-02T07:36:04;8.07;;;2.60;;
26838;SDS011;40088;51.214;6.786;2022-11-02T07:46:05;7.88;;;2.35;;
26838;SDS011;40088;51.214;6.786;2022-11-02T07:56:05;9.40;;;2.20;;
26838;SDS011;40088;51.214;6.786;2022-11-02T08:06:06;7.57;;;2.22;;
26838;SDS011;40088;51.214;6.786;2022-11-02T08:16:06;7.15;;;2.30;;
26838;SDS011;40088;51.214;6.786;2022-11-02T08:26:07;7.93;;;2.38;;
26838;SDS011;40088;51.214;6.786;2022-11-02T08:36:07;7.18;;;2.72;;
26838;SDS011;40088;51.214;6.786;2022-11-02T08:46:08;6.30;;;2.27;;
26838;SDS011;40088;51.214;6.786;2022-11-02T08:56:08;6.47;;;2.30;;
26838;SDS011;40088;51.214;6.786;2022-11-02T09:06:08;7.22;;;2.67;;
26838;SDS011;40088;51.214;6.786;2022-11-02T09:16:08;7.30;;;2.45;;
26838;SDS011;40088;51.214;6.786;2022-11-02T09:26:09;6.55;;;2.30;;
26838;SDS011;40088;51.214;6.786;2022-11-02T09:36:09;8.57;;;2.88;;
26838;SDS011;40088;51.214;6.786;2022-11-02T09:46:11;9.13;;;2.30;;
26838;SDS011;40088;51.214;6.786;2022-11-02T09:56:16;7.10;;;2.50;;
26838;SDS011;40088;51.214;6.786;2022-11-02T10:06:21;9.50;;;3.00;;
26838;SDS011;40088;51.214;6.786;2022-11-02T10:26:43;14.18;;;5.78;;
26838;SDS011;40088;51.214;6.786;2022-11-02T10:36:46;13.57;;;5.40;;
26838;SDS011;40088;51.214;6.786;2022-11-02T10:57:19;11.88;;;4.18;;
26838;SDS011;40088;51.214;6.786;2022-11-02T11:07:25;12.20;;;4.07;;
26838;SDS011;40088;51.214;6.786;2022-11-02T11:17:27;9.05;;;3.60;;
26838;SDS011;40088;51.214;6.786;2022-11-02T11:27:43;9.18;;;2.97;;
26838;SDS011;40088;51.214;6.786;2022-11-02T11:37:48;7.82;;;3.75;;
26838;SDS011;40088;51.214;6.786;2022-11-02T11:47:51;10.43;;;3.33;;
26838;SDS011;40088;51.214;6.786;2022-11-02T12:38:50;6.80;;;2.85;;
26838;SDS011;40088;51.214;6.786;2022-11-02T12:49:34;9.70;;;2.70;;
26838;SDS011;40088;51.214;6.786;2022-11-02T12:59:32;8.90;;;2.80;;
26838;SDS011;40088;51.214;6.786;2022-11-02T13:09:34;5.50;;;2.80;;
26838;SDS011;40088;51.214;6.786;2022-11-02T13:19:39;8.63;;;2.72;;
26838;SDS011;40088;51.214;6.786;2022-11-02T13:29:44;11.13;;;2.83;;
26838;SDS011;40088;51.214;6.786;2022-11-02T13:39:49;10.10;;;3.30;;
26838;SDS011;40088;51.214;6.786;2022-11-02T13:49:52;6.60;;;2.45;;
26838;SDS011;40088;51.214;6.786;2022-11-02T13:59:55;8.00;;;2.80;;
26838;SDS011;40088;51.214;6.786;2022-11-02T14:09:56;10.38;;;3.15;;
26838;SDS011;40088;51.214;6.786;2022-11-02T14:20:14;7.97;;;2.65;;
26838;SDS011;40088;51.214;6.786;2022-11-02T14:30:38;7.03;;;2.30;;
26838;SDS011;40088;51.214;6.786;2022-11-02T14:51:00;7.40;;;2.67;;
26838;SDS011;40088;51.214;6.786;2022-11-02T15:01:06;8.07;;;2.70;;
26838;SDS011;40088;51.214;6.786;2022-11-02T15:21:41;7.78;;;2.40;;
26838;SDS011;40088;51.214;6.786;2022-11-02T15:31:42;7.67;;;2.63;;
26838;SDS011;40088;51.214;6.786;2022-11-02T16:12:28;8.15;;;3.00;;
26838;SDS011;40088;51.214;6.786;2022-11-02T16:22:29;8.95;;;3.13;;
26838;SDS011;40088;51.214;6.786;2022-11-02T16:32:30;8.38;;;2.80;;
26838;SDS011;40088;51.214;6.786;2022-11-02T16:42:31;8.00;;;3.15;;
26838;SDS011;40088;51.214;6.786;2022-11-02T16:52:35;7.57;;;2.78;;
26838;SDS011;40088;51.214;6.786;2022-11-02T17:02:40;5.50;;;2.33;;
26838;SDS011;40088;51.214;6.786;2022-11-02T17:12:42;9.90;;;3.72;;
26838;SDS011;40088;51.214;6.786;2022-11-02T17:32:50;7.00;;;2.55;;
26838;SDS011;40088;51.214;6.786;2022-11-02T17:42:51;7.00;;;2.70;;
26838;SDS011;40088;51.214;6.786;2022-11-02T17:52:58;7.38;;;2.88;;
26838;SDS011;40088;51.214;6.786;2022-11-02T18:03:00;8.55;;;3.30;;
26838;SDS011;40088;51.214;6.786;2022-11-02T18:13:00;5.33;;;3.00;;
26838;SDS011;40088;51.214;6.786;2022-11-02T18:23:01;8.77;;;3.25;;
26838;SDS011;40088;51.214;6.786;2022-11-02T18:33:02;7.35;;;3.03;;
26838;SDS011;40088;51.214;6.786;2022-11-02T18:43:02;8.50;;;3.10;;
26838;SDS011;40088;51.214;6.786;2022-11-02T18:53:02;5.80;;;2.75;;
26838;SDS011;40088;51.214;6.786;2022-11-02T19:03:03;8.27;;;2.88;;
26838;SDS011;40088;51.214;6.786;2022-11-02T19:13:03;6.82;;;2.67;;
26838;SDS011;40088;51.214;6.786;2022-11-02T19:23:03;6.57;;;2.83;;
26838;SDS011;40088;51.214;6.786;2022-11-02T19:33:03;10.13;;;2.90;;
26838;SDS011;40088;51.214;6.786;2022-11-02T19:43:04;5.70;;;2.60;;
26838;SDS011;40088;51.214;6.786;2022-11-02T19:53:04;8.05;;;3.05;;
26838;SDS011;40088;51.214;6.786;2022-11-02T20:03:05;8.30;;;2.83;;
26838;SDS011;40088;51.214;6.786;2022-11-02T20:13:05;7.72;;;2.70;;
26838;SDS011;40088;51.214;6.786;2022-11-02T20:23:05;7.15;;;2.47;;
26838;SDS011;40088;51.214;6.786;2022-11-02T20:33:05;5.63;;;2.67;;
26838;SDS011;40088;51.214;6.786;2022-11-02T20:43:06;5.13;;;2.45;;
26838;SDS011;40088;51.214;6.786;2022-11-02T20:53:06;4.93;;;2.78;;
26838;SDS011;40088;51.214;6.786;2022-11-02T21:03:06;9.32;;;4.05;;
26838;SDS011;40088;51.214;6.786;2022-11-02T21:13:08;6.50;;;3.20;;
26838;SDS011;40088;51.214;6.786;2022-11-02T21:23:29;6.45;;;2.80;;
26838;SDS011;40088;51.214;6.786;2022-11-02T21:33:29;7.22;;;2.88;;
26838;SDS011;40088;51.214;6.786;2022-11-02T21:43:30;11.18;;;3.65;;
26838;SDS011;40088;51.214;6.786;2022-11-02T21:53:34;6.95;;;3.08;;
26838;SDS011;40088;51.214;6.786;2022-11-02T22:03:36;7.73;;;2.57;;
26838;SDS011;40088;51.214;6.786;2022-11-02T22:13:37;9.05;;;3.42;;
26838;SDS011;40088;51.214;6.786;2022-11-02T22:23:39;5.80;;;2.92;;
26838;SDS011;40088;51.214;6.786;2022-11-02T22:33:46;9.45;;;3.70;;
26838;SDS011;40088;51.214;6.786;2022-11-02T22:43:52;6.95;;;3.10;;
26838;SDS011;40088;51.214;6.786;2022-11-02T22:54:00;7.43;;;3.08;;
26838;SDS011;40088;51.214;6.786;2022-11-02T23:04:02;7.90;;;3.20;;
26838;SDS011;40088;51.214;6.786;2022-11-02T23:14:21;7.60;;;2.85;;
26838;SDS011;40088;51.214;6.786;2022-11-02T23:24:21;6.95;;;3.08;;
26838;SDS011;40088;51.214;6.786;2022-11-02T23:34:40;4.75;;;3.00;;
26838;SDS011;40088;51.214;6.786;2022-11-02T23:45:00;8.45;;;3.13;;
26838;SDS011;40088;51.214;6.786;2022-11-02T23:55:01;7.40;;;2.75;;
